Time;durP1;ratioP1;P1;durP2;ratioP2;P2;SDS_P1;SDS_P2;PMS_P1;PMS_P2;Temp;Humidity;BMP_temperature;BMP_pressure;BME280_temperature;BME280_humidity;BME280_pressure;Samples;Min_cycle;Max_cycle;Signal;HPM_P1;HPM_P2
2022/10/22 00:01:27;;;;;;;11.88;6.22;;;;;;;;;;6220628;23;20074;-73
2022/10/22 00:03:53;;;;;;;10.05;6.88;;;;;;;;;;6195829;23;20016;-72
2022/10/22 00:06:19;;;;;;;9.82;6.00;;;;;;;;;;6220415;23;20018;-73
2022/10/22 00:08:45;;;;;;;12.63;7.10;;;;;;;;;;6220390;23;20062;-73
2022/10/22 00:11:13;;;;;;;11.65;6.80;;;;;;;;;;6195341;23;20015;-73
2022/10/22 00:13:39;;;;;;;9.88;6.60;;;;;;;;;;6220786;23;20023;-72
2022/10/22 00:16:05;;;;;;;12.27;6.88;;;;;;;;;;6220364;23;20012;-72
2022/10/22 00:18:31;;;;;;;10.18;6.63;;;;;;;;;;6220568;23;20012;-72
2022/10/22 00:20:57;;;;;;;14.23;7.13;;;;;;;;;;6195444;23;20016;-73
2022/10/22 00:23:23;;;;;;;10.70;6.82;;;;;;;;;;6220562;23;20012;-73
2022/10/22 00:25:49;;;;;;;10.75;6.60;;;;;;;;;;6220409;23;20066;-72
2022/10/22 00:28:15;;;;;;;12.13;7.20;;;;;;;;;;6220425;23;20020;-72
2022/10/22 00:30:41;;;;;;;9.77;6.97;;;;;;;;;;6247120;23;20064;-73
2022/10/22 00:33:07;;;;;;;11.27;6.50;;;;;;;;;;6220397;23;20017;-72
2022/10/22 00:35:34;;;;;;;8.25;6.47;;;;;;;;;;6220217;23;20069;-72
2022/10/22 00:38:00;;;;;;;9.45;6.50;;;;;;;;;;6220325;23;20016;-72
2022/10/22 00:40:26;;;;;;;8.57;6.68;;;;;;;;;;6220297;23;20401;-72
2022/10/22 00:42:52;;;;;;;8.63;6.75;;;;;;;;;;6220495;23;20020;-72
2022/10/22 00:45:23;;;;;;;11.07;6.30;;;;;;;;;;6220138;23;20032;-73
2022/10/22 00:47:58;;;;;;;11.82;7.13;;;;;;;;;;6195088;23;20099;-73
2022/10/22 00:50:27;;;;;;;10.23;6.40;;;;;;;;;;6220152;23;20019;-73
2022/10/22 00:52:54;;;;;;;9.95;6.07;;;;;;;;;;6220141;23;20439;-72
2022/10/22 00:55:20;;;;;;;12.23;6.35;;;;;;;;;;6220199;23;20031;-72
2022/10/22 00:57:47;;;;;;;12.60;6.63;;;;;;;;;;6195453;23;20020;-73
2022/10/22 01:00:14;;;;;;;9.02;6.25;;;;;;;;;;6194822;23;20051;-73
2022/10/22 01:02:40;;;;;;;8.57;6.32;;;;;;;;;;6220159;23;20012;-73
2022/10/22 01:05:06;;;;;;;10.90;6.30;;;;;;;;;;6220130;23;20062;-72
2022/10/22 01:07:35;;;;;;;11.70;7.28;;;;;;;;;;6219946;22;20076;-72
2022/10/22 01:10:08;;;;;;;10.30;6.55;;;;;;;;;;6219963;23;20019;-72
2022/10/22 01:12:34;;;;;;;7.68;6.28;;;;;;;;;;6220132;23;20019;-72
2022/10/22 01:15:06;;;;;;;8.55;5.85;;;;;;;;;;6219836;23;20009;-73
2022/10/22 01:17:41;;;;;;;13.38;7.25;;;;;;;;;;6219947;23;20055;-72
2022/10/22 01:20:38;;;;;;;9.68;5.95;;;12.50;99.90;;;;;;6194813;23;20012;-72
2022/10/22 01:23:22;;;;;;;9.45;6.90;;;;;;;;;;6219715;23;20094;-72
2022/10/22 01:26:09;;;;;;;10.48;7.65;;;;;;;;;;6219856;23;20080;-73
2022/10/22 01:28:39;;;;;;;9.65;7.05;;;;;;;;;;6219477;23;20411;-73
2022/10/22 01:31:05;;;;;;;8.93;6.70;;;;;;;;;;6194595;23;20008;-73
2022/10/22 01:33:32;;;;;;;9.77;6.28;;;;;;;;;;6219803;23;20095;-72
2022/10/22 01:35:58;;;;;;;11.07;7.45;;;;;;;;;;6219715;23;20339;-72
2022/10/22 01:38:25;;;;;;;13.40;7.32;;;;;;;;;;6219730;23;20316;-72
2022/10/22 01:40:52;;;;;;;12.05;7.60;;;;;;;;;;6219775;23;20462;-72
2022/10/22 01:43:18;;;;;;;9.73;7.47;;;;;;;;;;6219910;23;20023;-72
2022/10/22 01:45:48;;;;;;;13.80;7.32;;;;;;;;;;6219587;23;20023;-72
2022/10/22 01:48:20;;;;;;;13.65;7.82;;;;;;;;;;6219508;23;20016;-73
2022/10/22 01:50:46;;;;;;;9.20;6.93;;;;;;;;;;6219509;23;20016;-72
2022/10/22 01:53:22;;;;;;;20.95;7.93;;;;;;;;;;6219755;23;20077;-72
2022/10/22 01:56:01;;;;;;;13.27;8.00;;;;;;;;;;6219494;23;20019;-72
2022/10/22 01:58:33;;;;;;;12.38;7.88;;;;;;;;;;6246318;23;20439;-72
2022/10/22 02:01:02;;;;;;;14.05;8.85;;;;;;;;;;6219249;23;20496;-72
2022/10/22 02:03:31;;;;;;;9.80;7.55;;;;;;;;;;6219376;23;20342;-77
2022/10/22 02:06:01;;;;;;;13.48;6.90;;;;;;;;;;6246037;23;20338;-77
2022/10/22 02:08:29;;;;;;;14.60;7.60;;;;;;;;;;6218988;23;20074;-77
2022/10/22 02:10:56;;;;;;;11.15;7.20;;;;;;;;;;6219021;23;20020;-77
2022/10/22 02:13:27;;;;;;;13.48;7.45;;;;;;;;;;6219055;23;20012;-77
2022/10/22 02:15:54;;;;;;;12.73;7.15;;;;;;;;;;6219058;23;20016;-77
2022/10/22 02:18:23;;;;;;;12.60;7.18;;;;;;;;;;6218923;23;20197;-77
2022/10/22 02:20:50;;;;;;;10.70;6.55;;;;;;;;;;6219175;23;20020;-77
2022/10/22 02:23:16;;;;;;;12.63;6.95;;;;;;;;;;6194224;23;20385;-77
2022/10/22 02:25:45;;;;;;;10.27;6.85;;;;;;;;;;6219137;23;20028;-76
2022/10/22 02:28:31;;;;;;;12.02;7.40;;;;;;;;;;6219317;23;20091;-76
2022/10/22 02:31:01;;;;;;;12.15;6.78;;;;;;;;;;6218920;23;20012;-76
2022/10/22 02:33:33;;;;;;;9.50;7.32;;;;;;;;;;6218946;23;20012;-77
2022/10/22 02:36:00;;;;;;;10.55;6.45;;;;;;;;;;6245996;23;20091;-77
2022/10/22 02:38:27;;;;;;;10.40;7.13;;;;;;;;;;6194087;23;20094;-71
2022/10/22 02:40:53;;;;;;;10.95;7.50;;;;;;;;;;6246239;23;20020;-71
2022/10/22 02:43:19;;;;;;;16.45;7.68;;;;;;;;;;6219196;23;20015;-71
2022/10/22 02:45:46;;;;;;;14.25;6.60;;;;;;;;;;6214435;23;20017;-71
2022/10/22 02:48:12;;;;;;;10.63;6.88;;;;;;;;;;6214005;23;20055;-71
2022/10/22 02:50:38;;;;;;;10.52;6.25;;;;;;;;;;6214272;23;20092;-71
2022/10/22 02:53:04;;;;;;;13.25;6.50;;;;;;;;;;6214027;23;20020;-71
2022/10/22 02:55:30;;;;;;;9.07;6.43;;;;;;;;;;6214186;23;20039;-71
2022/10/22 02:57:56;;;;;;;12.88;6.45;;;;;;;;;;6189020;23;20070;-71
2022/10/22 03:00:23;;;;;;;10.85;7.00;;;;;;;;;;6214012;23;20036;-71
2022/10/22 03:02:49;;;;;;;10.55;6.63;;;;;;;;;;6213763;23;20016;-71
2022/10/22 03:05:15;;;;;;;8.07;5.60;;;;;;;;;;6214087;23;20034;-71
2022/10/22 03:07:41;;;;;;;14.07;7.10;;;;;;;;;;6213601;23;20012;-72
2022/10/22 03:10:07;;;;;;;10.65;5.68;;;;;;;;;;6164419;23;20016;-77
2022/10/22 03:12:33;;;;;;;10.00;6.18;;;;;;;;;;6188961;23;20016;-77
2022/10/22 03:14:59;;;;;;;13.23;6.68;;;;;;;;;;6214122;23;20013;-77
2022/10/22 03:17:25;;;;;;;9.95;6.43;;;;;;;;;;6213920;23;20473;-77
2022/10/22 03:19:51;;;;;;;10.15;6.03;;;;;;;;;;6215356;23;20529;-77
2022/10/22 03:22:20;;;;;;;12.20;6.07;;;;;;;;;;6189307;23;20506;-77
2022/10/22 03:24:48;;;;;;;10.95;5.50;;;;;;;;;;6213808;23;20017;-76
2022/10/22 03:27:16;;;;;;;10.38;6.15;;;;;;;;;;6215086;23;20017;-71
2022/10/22 03:29:42;;;;;;;9.75;5.85;;;;;;;;;;6215883;23;20518;-72
2022/10/22 03:32:08;;;;;;;10.88;5.90;;;;;;;;;;6190676;23;20024;-71
2022/10/22 03:34:34;;;;;;;9.85;6.43;;;;;;;;;;6215755;23;20012;-76
2022/10/22 03:37:00;;;;;;;10.73;5.65;;;;;;;;;;6215883;23;20020;-77
2022/10/22 03:39:28;;;;;;;12.43;5.93;;;;;;;;;;6215746;23;20066;-77
2022/10/22 03:41:54;;;;;;;11.93;5.85;;;;;;;;;;6216810;23;20350;-77
2022/10/22 03:44:21;;;;;;;11.65;5.80;;;;;;;;;;6217738;23;20020;-77
2022/10/22 03:46:47;;;;;;;9.98;5.60;;;;;;;;;;6218244;23;20036;-78
2022/10/22 03:49:13;;;;;;;10.48;5.63;;;;;;;;;;6217414;23;20403;-77
2022/10/22 03:51:39;;;;;;;11.40;5.80;;;;;;;;;;6216435;23;20096;-77
2022/10/22 03:54:05;;;;;;;11.80;5.82;;;;;;;;;;6215582;23;20115;-77
2022/10/22 03:56:32;;;;;;;8.95;5.40;;;;;;;;;;6215822;23;20376;-77
2022/10/22 03:58:59;;;;;;;14.18;5.53;;;;;;;;;;6215375;23;20043;-72
2022/10/22 04:01:26;;;;;;;7.65;5.78;;;;;;;;;;6215536;23;20347;-72
2022/10/22 04:03:52;;;;;;;21.42;5.60;;;;;;;;;;6190357;23;20458;-72
2022/10/22 04:06:18;;;;;;;16.08;5.78;;;;;;;;;;6215505;23;20016;-72
2022/10/22 04:08:45;;;;;;;15.88;5.80;;;;;;;;;;6190304;23;20016;-72
2022/10/22 04:11:11;;;;;;;11.25;5.75;;;;;;;;;;6215453;23;20009;-72
2022/10/22 04:13:37;;;;;;;11.05;5.43;;;;;;;;;;6215402;23;20013;-72
2022/10/22 04:16:11;;;;;;;10.30;5.78;;;;;;;;;;6217113;23;20443;-72
2022/10/22 04:18:37;;;;;;;10.38;5.30;;;;;;;;;;6215206;23;20021;-72
2022/10/22 04:21:04;;;;;;;8.68;5.53;;;;;;;;;;6215459;23;20027;-72
2022/10/22 04:23:30;;;;;;;9.55;5.10;;;;;;;;;;6215043;23;20020;-72
2022/10/22 04:26:00;;;;;;;14.05;6.00;;;;;;;;;;6215128;23;20095;-72
2022/10/22 04:28:26;;;;;;;10.40;5.68;;;;;;;;;;6214846;23;20017;-72
2022/10/22 04:30:52;;;;;;;8.93;5.57;;;;;;;;;;6215225;23;20012;-72
2022/10/22 04:33:18;;;;;;;12.52;5.63;;;;;;;;;;6215134;23;20008;-72
2022/10/22 04:35:44;;;;;;;9.05;5.95;;;;;;;;;;6215257;23;20111;-72
2022/10/22 04:38:11;;;;;;;14.55;6.40;;;;;;;;;;6214895;23;20016;-72
2022/10/22 04:40:37;;;;;;;9.65;6.65;;;;;;;;;;6215559;23;20324;-72
2022/10/22 04:43:03;;;;;;;13.43;6.47;;;;;;;;;;6216943;23;20091;-77
2022/10/22 04:45:29;;;;;;;14.30;6.60;;;;;;;;;;6189871;23;20439;-77
2022/10/22 04:47:56;;;;;;;12.52;6.85;;;;;;;;;;6214907;23;20013;-77
2022/10/22 04:50:22;;;;;;;14.18;7.20;;;;;;;;;;6215093;23;20459;-77
2022/10/22 04:52:48;;;;;;;16.33;7.13;;;;;;;;;;6214944;23;20031;-77
2022/10/22 04:55:14;;;;;;;13.05;6.50;;;;;;;;;;6214920;23;20023;-76
2022/10/22 04:57:40;;;;;;;10.88;6.00;;;;;;;;;;6214899;23;20013;-77
2022/10/22 05:00:07;;;;;;;12.77;6.70;;;;;;;;;;6189999;23;20024;-77
2022/10/22 05:02:33;;;;;;;14.18;5.38;;;;;;;;;;6216226;23;20020;-77
2022/10/22 05:04:59;;;;;;;11.77;5.72;;;;;;;;;;6165242;23;20013;-77
2022/10/22 05:07:25;;;;;;;8.98;5.55;;;;;;;;;;6214521;23;20020;-78
2022/10/22 05:09:52;;;;;;;14.60;6.03;;;;;;;;;;6190421;23;20071;-79
2022/10/22 05:12:19;;;;;;;10.05;6.18;;;;;;;;;;6215288;23;20023;-81
2022/10/22 05:14:45;;;;;;;9.52;5.75;;;;;;;;;;6215622;23;20055;-81
2022/10/22 05:17:11;;;;;;;11.20;5.32;;;;;;;;;;6191063;23;20019;-81
2022/10/22 05:19:37;;;;;;;14.88;5.47;;;;;;;;;;6213938;23;20079;-80
2022/10/22 05:22:04;;;;;;;11.88;5.50;;;;;;;;;;6214752;23;20427;-81
2022/10/22 05:24:33;;;;;;;13.85;5.50;;;;;;;;;;6214734;23;20017;-81
2022/10/22 05:26:59;;;;;;;10.60;6.10;;;;;;;;;;6214867;23;20012;-80
2022/10/22 05:29:26;;;;;;;8.23;5.45;;;;;;;;;;6214568;23;20067;-81
2022/10/22 05:31:52;;;;;;;13.43;5.75;;;;;;;;;;6214471;23;20048;-81
2022/10/22 05:34:19;;;;;;;11.80;5.93;;;;;;;;;;6214687;23;20067;-81
2022/10/22 05:36:45;;;;;;;8.85;6.03;;;;;;;;;;6214582;23;20040;-76
2022/10/22 05:39:11;;;;;;;12.23;5.97;;;;;;;;;;6214884;23;20024;-75
2022/10/22 05:41:37;;;;;;;14.68;6.00;;;;;;;;;;6214297;23;20027;-75
2022/10/22 05:44:04;;;;;;;12.25;5.18;;;;;;;;;;6221225;22;20051;-75
2022/10/22 05:46:33;;;;;;;10.93;5.25;;;;;;;;;;6219756;23;20023;-76
2022/10/22 05:49:00;;;;;;;14.52;5.32;;;;;;;;;;6218546;23;20454;-76
2022/10/22 05:51:27;;;;;;;10.77;6.05;;;;;;;;;;6246188;23;20048;-75
2022/10/22 05:53:58;;;;;;;12.50;5.47;;;;;;;;;;6219462;23;20025;-75
2022/10/22 05:56:25;;;;;;;15.98;6.00;;;;;;;;;;6246232;23;20422;-75
2022/10/22 05:58:51;;;;;;;11.45;5.47;;;;;;;;;;6219252;23;20114;-75
2022/10/22 06:01:19;;;;;;;10.40;5.45;;;;;;;;;;6194119;23;20023;-75
2022/10/22 06:03:46;;;;;;;17.27;5.80;;;;;;;;;;6219113;23;20016;-75
2022/10/22 06:06:18;;;;;;;8.57;5.38;;;;;;;;;;6193945;23;20022;-75
2022/10/22 06:08:44;;;;;;;10.10;6.00;;;;;;;;;;6218800;23;20016;-75
2022/10/22 06:11:10;;;;;;;10.60;5.15;;;;;;;;;;6219234;23;20012;-74
2022/10/22 06:13:37;;;;;;;13.90;5.10;;;;;;;;;;6246454;23;20023;-73
2022/10/22 06:16:03;;;;;;;11.93;5.40;;;;;;;;;;6219108;23;20012;-73
2022/10/22 06:18:29;;;;;;;11.68;5.22;;;;;;;;;;6218413;23;20020;-73
2022/10/22 06:20:55;;;;;;;14.20;5.22;;;;;;;;;;6219097;23;20091;-73
2022/10/22 06:23:21;;;;;;;11.43;5.13;;;;;;;;;;6245911;23;20342;-73
2022/10/22 06:25:58;;;;;;;14.98;5.43;;;;;;;;;;6219150;23;20016;-73
2022/10/22 06:28:24;;;;;;;15.82;4.93;;;;;;;;;;6218860;23;20012;-73
2022/10/22 06:30:50;;;;;;;12.48;5.20;;;;;;;;;;6246004;23;20016;-74
2022/10/22 06:33:16;;;;;;;9.70;4.97;;;;;;;;;;6194269;23;20019;-73
2022/10/22 06:35:44;;;;;;;15.80;5.40;;;;;;;;;;6218936;23;20008;-74
2022/10/22 06:38:10;;;;;;;11.95;5.28;;;;;;;;;;6219091;23;20016;-74
2022/10/22 06:40:36;;;;;;;16.45;5.35;;;;;;;;;;6218882;23;20397;-77
2022/10/22 06:43:04;;;;;;;8.85;5.15;;;;;;;;;;6217571;23;20020;-77
2022/10/22 06:45:31;;;;;;;8.50;4.68;;;;;;;;;;6211791;23;20481;-77
2022/10/22 06:47:57;;;;;;;14.70;5.18;;;;;;;;;;6213934;23;20023;-77
2022/10/22 06:50:23;;;;;;;11.85;5.10;;;;;;;;;;6214396;23;20059;-77
2022/10/22 06:52:50;;;;;;;11.48;5.28;;;;;;;;;;6213884;23;20012;-77
2022/10/22 06:55:16;;;;;;;15.00;6.57;;;;;;;;;;6213698;23;20012;-77
2022/10/22 06:57:42;;;;;;;9.85;4.57;;;;;;;;;;6189056;23;20021;-77
2022/10/22 07:00:08;;;;;;;8.45;4.70;;;;;;;;;;6215830;23;20012;-77
2022/10/22 07:02:34;;;;;;;16.00;5.07;;;;;;;;;;6215873;23;20070;-77
2022/10/22 07:05:00;;;;;;;11.82;5.20;;;;;;;;;;6190670;23;20027;-76
2022/10/22 07:07:26;;;;;;;9.30;4.53;;;;;;;;;;6215567;23;20020;-77
2022/10/22 07:09:52;;;;;;;15.13;5.05;;;;;;;;;;6214092;23;20016;-77
2022/10/22 07:12:18;;;;;;;10.10;4.63;;;;;;;;;;6216212;23;20447;-77
2022/10/22 07:14:44;;;;;;;12.13;4.72;;;;;;;;;;6213662;23;20339;-77
2022/10/22 07:17:10;;;;;;;15.32;5.38;;;;;;;;;;6215869;23;20023;-77
2022/10/22 07:19:37;;;;;;;12.68;5.03;;;;;;;;;;6215582;23;20016;-77
2022/10/22 07:22:03;;;;;;;11.27;4.70;;;;;;;;;;6215521;23;20047;-77
2022/10/22 07:24:29;;;;;;;11.90;5.10;;;;;;;;;;6215178;23;20063;-77
2022/10/22 07:26:55;;;;;;;14.50;5.60;;;;;;;;;;6215485;23;20020;-77
2022/10/22 07:29:21;;;;;;;11.27;5.70;;;;;;;;;;6190528;23;20012;-77
2022/10/22 07:31:47;;;;;;;12.38;4.72;;;;;;;;;;6215428;23;20012;-77
2022/10/22 07:34:13;;;;;;;11.07;5.05;;;;;;;;;;6215238;23;20019;-77
2022/10/22 07:36:39;;;;;;;15.40;4.68;;;;;;;;;;6215436;23;20067;-77
2022/10/22 07:39:05;;;;;;;11.20;4.78;;;;;;;;;;6215396;23;20096;-77
2022/10/22 07:41:31;;;;;;;11.52;4.80;;;;;;;;;;6215125;23;20050;-77
2022/10/22 07:43:58;;;;;;;11.75;4.68;;;;;;;;;;6218955;22;20070;-76
2022/10/22 07:46:25;;;;;;;12.25;4.95;;;;;;;;;;6195426;23;20023;-78
2022/10/22 07:48:51;;;;;;;14.63;5.22;;;;;;;;;;6247456;23;20024;-78
2022/10/22 07:51:17;;;;;;;12.60;4.78;;;;;;;;;;6220393;23;20020;-77
2022/10/22 07:53:43;;;;;;;15.98;4.80;;;;;;;;;;6220771;23;20468;-78
2022/10/22 07:56:09;;;;;;;14.13;4.90;;;;;;;;;;6219843;23;20058;-78
2022/10/22 07:58:36;;;;;;;15.75;5.22;;;;;;;;;;6220371;23;20016;-78
2022/10/22 08:01:04;;;;;;;12.45;4.90;;;;;;;;;;6220020;23;20024;-78
2022/10/22 08:03:31;;;;;;;10.52;4.65;;;;;;;;;;6219841;23;20477;-78
2022/10/22 08:05:57;;;;;;;11.45;4.68;;;;;;;;;;6219985;23;20468;-78
2022/10/22 08:08:23;;;;;;;13.77;4.50;;;;;;;;;;6194710;23;20027;-77
2022/10/22 08:10:51;;;;;;;11.18;4.45;;;;;;;;;;6219976;23;20507;-77
2022/10/22 08:13:18;;;;;;;11.43;5.13;;;;;;;;;;6219898;23;20019;-77
2022/10/22 08:15:45;;;;;;;8.63;4.40;;;;;;;;;;6220032;23;20429;-77
2022/10/22 08:18:12;;;;;;;17.55;5.00;;;;;;;;;;6194796;23;20077;-77
2022/10/22 08:20:38;;;;;;;14.55;4.50;;;;;;;;;;6219727;23;20417;-79
2022/10/22 08:23:04;;;;;;;12.25;4.70;;;;;;;;;;6220141;23;20074;-77
2022/10/22 08:25:30;;;;;;;20.85;4.80;;;;;;;;;;6220484;23;20338;-76
2022/10/22 08:27:56;;;;;;;11.18;4.30;;;;;;;;;;6220398;23;20012;-76
2022/10/22 08:30:22;;;;;;;13.68;4.47;;;;;;;;;;6195168;23;20012;-78
2022/10/22 08:32:48;;;;;;;13.15;3.97;;;;;;;;;;6220313;23;20009;-76
2022/10/22 08:35:14;;;;;;;15.75;3.90;;;;;;;;;;6195125;23;20016;-77
2022/10/22 08:37:40;;;;;;;20.35;4.40;;;;;;;;;;6219362;23;20024;-77
2022/10/22 08:40:07;;;;;;;18.63;5.35;;;;;;;;;;6194928;23;20087;-77
2022/10/22 08:42:36;;;;;;;13.35;3.75;;;;;;;;;;6246648;23;20024;-77
2022/10/22 08:45:14;;;;;;;20.70;4.07;;;;;;;;;;6194290;23;20114;-77
2022/10/22 08:47:43;;;;;;;12.80;3.55;;;;;;;;;;6219523;23;20019;-77
2022/10/22 08:50:11;;;;;;;14.73;3.95;;;;;;;;;;6219885;23;20070;-77
2022/10/22 08:52:40;;;;;;;14.70;4.32;;;;;;;;;;6219121;23;20070;-77
2022/10/22 08:55:12;;;;;;;12.77;3.70;;;;;;;;;;6219443;23;20012;-77
2022/10/22 08:57:38;;;;;;;17.08;3.83;;;;;;;;;;6194262;23;20016;-77
2022/10/22 09:00:04;;;;;;;14.85;3.50;;;;;;;;;;6246367;23;20016;-77
2022/10/22 09:02:55;;;;;;;10.57;3.40;;;;;;;;;;6219047;23;20008;-77
2022/10/22 09:05:39;;;;;;;12.25;3.67;;;;;;;;;;6202056;23;20123;-77
2022/10/22 09:08:08;;;;;;;12.93;3.53;;;;;;;;;;6219473;23;20019;-77
2022/10/22 09:10:35;;;;;;;8.65;3.60;;;;;;;;;;6219558;23;20012;-77
2022/10/22 09:13:02;;;;;;;13.27;3.50;;;;;;;;;;6219622;23;20016;-77
2022/10/22 09:15:30;;;;;;;14.52;4.05;;;;;;;;;;6219481;23;20008;-76
2022/10/22 09:18:05;;;;;;;9.98;3.30;;;;;;;;;;6218564;23;20012;-77
2022/10/22 09:20:38;;;;;;;11.73;3.47;;;;;;;;;;6218103;23;20016;-77
2022/10/22 09:23:20;;;;;;;11.77;3.35;;;;;;;;;;6219321;23;20012;-77
2022/10/22 09:25:48;;;;;;;12.10;3.90;;;;;;;;;;6219383;23;20375;-77
2022/10/22 09:28:17;;;;;;;10.75;3.35;;;;;;;;;;6217987;23;20020;-77
2022/10/22 09:30:43;;;;;;;20.38;3.40;;;;;;;;;;6219657;23;20358;-77
2022/10/22 09:33:09;;;;;;;10.45;3.60;;;;;;;;;;6219318;23;20023;-77
2022/10/22 09:35:43;;;;;;;11.32;3.72;;;;;;;;;;6219538;23;20012;-77
2022/10/22 09:38:09;;;;;;;9.85;3.47;;;;;;;;;;6219492;23;20034;-77
2022/10/22 09:40:46;;;;;;;17.85;3.58;;;;;;;;;;6194275;23;20020;-77
2022/10/22 09:43:13;;;;;;;15.23;3.70;;;;;;;;;;6194373;23;20055;-78
2022/10/22 09:45:40;;;;;;;10.77;3.33;;;;;;;;;;6219117;23;20038;-77
2022/10/22 09:48:16;;;;;;;16.30;3.78;;;;;;;;;;6194269;23;20017;-77
2022/10/22 09:50:43;;;;;;;10.63;4.22;;;;;;;;;;6219333;23;20022;-77
2022/10/22 09:53:14;;;;;;;15.07;4.50;;;;;;;;;;6218877;23;20388;-77
2022/10/22 09:55:41;;;;;;;13.80;3.60;;;;;;;;;;6219233;23;20023;-77
2022/10/22 09:58:08;;;;;;;15.77;3.95;;;;;;;;;;6218750;23;20012;-77
2022/10/22 10:00:37;;;;;;;17.02;4.20;;;;;;;;;;6193819;23;20448;-77
2022/10/22 10:03:03;;;;;;;8.85;3.63;;;;;;;;;;6218425;23;20027;-77
2022/10/22 10:05:35;;;;;;;11.40;4.55;;;;;;;;;;6218690;23;20087;-76
2022/10/22 10:08:14;;;;;;;16.63;4.40;;;;;;;;;;6218509;23;20094;-77
2022/10/22 10:10:40;;;;;;;16.65;4.25;;;;;;;;;;6219056;23;20442;-76
2022/10/22 10:13:06;;;;;;;12.15;4.13;;;;;;;;;;6218613;23;20008;-77
2022/10/22 10:15:37;;;;;;;17.00;5.00;;;;;;;;;;6217858;23;20069;-76
2022/10/22 10:18:22;;;;;;;12.13;4.35;;;;;;;;;;6245421;23;20023;-75
2022/10/22 10:20:51;;;;;;;15.13;4.05;;;;;;;;;;6218618;23;20026;-74
2022/10/22 10:23:17;;;;;;;13.70;4.00;;;;;;;;;;6218777;23;20015;-74
2022/10/22 10:26:05;;;;;;;14.70;4.03;;;15.60;99.90;;;;;;6218799;23;20115;-75
2022/10/22 10:28:34;;;;;;;14.75;3.58;;;;;;;;;;6218348;23;20020;-75
2022/10/22 10:31:00;;;;;;;11.88;3.58;;;;;;;;;;6219013;23;20102;-74
2022/10/22 10:33:38;;;;;;;11.32;3.55;;;;;;;;;;6218824;23;20012;-74
2022/10/22 10:36:35;;;;;;;9.43;3.45;;;16.10;99.90;;;;;;6193421;23;20016;-74
2022/10/22 10:39:04;;;;;;;8.30;2.80;;;;;;;;;;6168147;23;20050;-74
2022/10/22 10:41:37;;;;;;;7.22;3.10;;;;;;;;;;6218736;23;20012;-75
2022/10/22 10:44:19;;;;;;;9.77;3.58;;;;;;;;;;6193429;23;20066;-74
2022/10/22 10:47:19;;;;;;;10.63;3.97;;;15.50;99.90;;;;;;6218739;23;20048;-74
2022/10/22 10:49:46;;;;;;;10.98;4.65;;;;;;;;;;6094532;23;20023;-76
2022/10/22 10:52:23;;;;;;;11.00;4.63;;;;;;;;;;6218734;23;20086;-75
2022/10/22 10:54:56;;;;;;;9.75;5.25;;;;;;;;;;6219005;23;20008;-75
2022/10/22 10:57:22;;;;;;;11.32;5.10;;;;;;;;;;6218864;23;20031;-75
2022/10/22 10:59:57;;;;;;;12.27;4.88;;;;;;;;;;6218753;23;20012;-76
2022/10/22 11:03:00;;;;;;;13.80;5.90;;;15.30;99.90;;;;;;6245755;23;20016;-75
2022/10/22 11:05:41;;;;;;;12.48;5.47;;;;;;;;;;6219109;23;20012;-75
2022/10/22 11:08:07;;;;;;;14.35;6.30;;;;;;;;;;6218781;23;20462;-74
2022/10/22 11:10:36;;;;;;;13.10;5.22;;;;;;;;;;6218999;23;20016;-74
2022/10/22 11:13:21;;;;;;;12.30;4.70;;;;;;;;;;6218880;23;20078;-74
2022/10/22 11:15:50;;;;;;;11.80;5.93;;;;;;;;;;6219133;23;20016;-73
2022/10/22 11:18:49;;;;;;;18.90;5.68;;;;;;;;;;6219040;23;20016;-73
2022/10/22 11:21:18;;;;;;;15.65;5.80;;;;;;;;;;6138442;23;20048;-73
2022/10/22 11:23:49;;;;;;;17.95;5.50;;;;;;;;;;6218715;23;20339;-73
2022/10/22 11:26:22;;;;;;;15.85;5.00;;;;;;;;;;6218854;23;20030;-73
2022/10/22 11:28:50;;;;;;;13.30;5.05;;;;;;;;;;6218500;23;20066;-74
2022/10/22 11:31:17;;;;;;;15.35;4.72;;;;;;;;;;6193571;23;20012;-74
2022/10/22 11:33:43;;;;;;;14.23;4.70;;;;;;;;;;6218864;23;20020;-75
2022/10/22 11:36:10;;;;;;;10.68;5.05;;;;;;;;;;6194470;23;20019;-76
2022/10/22 11:38:37;;;;;;;18.45;4.45;;;;;;;;;;6192968;23;20035;-74
2022/10/22 11:41:09;;;;;;;12.57;4.55;;;;;;;;;;6169122;23;20020;-73
2022/10/22 11:43:35;;;;;;;;;;;;;;;;;;6216951;23;20027;-73
2022/10/22 11:46:21;;;;;;;18.88;4.82;;;;;;;;;;6213261;23;19916;-73
2022/10/22 11:49:01;;;;;;;12.30;4.65;;;;;;;;;;6195087;23;20021;-73
2022/10/22 11:51:34;;;;;;;14.07;5.25;;;;;;;;;;6215709;23;20036;-73
2022/10/22 11:54:02;;;;;;;17.85;5.47;;;;;;;;;;6215764;23;20040;-72
2022/10/22 11:56:36;;;;;;;14.32;5.25;;;;;;;;;;6215964;23;20023;-73
2022/10/22 11:59:03;;;;;;;16.70;4.70;;;;;;;;;;6217933;23;20020;-73
2022/10/22 12:01:40;;;;;;;17.00;5.72;;;;;;;;;;6217069;23;20016;-74
2022/10/22 12:04:20;;;;;;;11.82;4.30;;;;;;;;;;6214948;23;20406;-75
2022/10/22 12:06:57;;;;;;;10.20;4.15;;;;;;;;;;6214982;23;20012;-74
2022/10/22 12:09:25;;;;;;;12.52;4.32;;;;;;;;;;6215394;23;20462;-74
2022/10/22 12:11:52;;;;;;;15.75;4.82;;;;;;;;;;6190480;23;20082;-74
2022/10/22 12:14:28;;;;;;;16.58;4.40;;;;;;;;;;6190467;23;20019;-74
2022/10/22 12:17:13;;;;;;;12.65;4.10;;;;;;;;;;6213082;23;20454;-74
2022/10/22 12:20:08;;;;;;;11.65;3.70;;;;;;;;;;6212111;23;20099;-73
2022/10/22 12:22:38;;;;;;;12.35;3.83;;;;;;;;;;6172649;23;20025;-73
2022/10/22 12:25:24;;;;;;;12.82;3.45;;;;;;;;;;6212064;23;20199;-74
2022/10/22 12:27:52;;;;;;;6.30;2.70;;;;;;;;;;6211648;23;20017;-74
2022/10/22 12:30:26;;;;;;;10.90;2.70;;;;;;;;;;6211459;23;20039;-74
2022/10/22 12:32:53;;;;;;;13.48;2.92;;;;;;;;;;6213368;23;20339;-75
2022/10/22 12:35:21;;;;;;;8.50;1.80;;;;;;;;;;6211882;23;20023;-74
2022/10/22 12:37:51;;;;;;;13.35;2.85;;;;;;;;;;6211391;23;20048;-75
2022/10/22 12:40:24;;;;;;;11.13;2.28;;;;;;;;;;6212179;23;20079;-73
2022/10/22 12:42:52;;;;;;;10.80;2.72;;;;;;;;;;6211859;23;20028;-72
2022/10/22 12:45:18;;;;;;;6.90;1.92;;;;;;;;;;6186783;23;20119;-72
2022/10/22 12:47:45;;;;;;;10.82;2.17;;;;;;;;;;6212705;23;20075;-73
2022/10/22 12:50:23;;;;;;;9.57;1.80;;;;;;;;;;6211723;23;20017;-73
2022/10/22 12:52:49;;;;;;;12.88;1.75;;;;;;;;;;6212518;23;20016;-73
2022/10/22 12:55:16;;;;;;;11.20;2.20;;;;;;;;;;6187279;23;20020;-73
2022/10/22 12:57:42;;;;;;;12.68;2.00;;;;;;;;;;6213077;23;20032;-73
2022/10/22 13:00:31;;;;;;;8.27;2.20;;;;;;;;;;6212303;23;20017;-73
2022/10/22 13:02:58;;;;;;;15.25;1.83;;;;;;;;;;6211465;23;20030;-73
2022/10/22 13:05:26;;;;;;;14.05;2.30;;;;;;;;;;6212623;23;20012;-73
2022/10/22 13:08:03;;;;;;;10.50;1.83;;;;;;;;;;6212731;23;20027;-73
2022/10/22 13:10:34;;;;;;;10.40;1.80;;;;;;;;;;6214808;23;20019;-73
2022/10/22 13:13:05;;;;;;;8.18;1.75;;;;;;;;;;6189436;23;20066;-73
2022/10/22 13:15:34;;;;;;;9.33;1.97;;;;;;;;;;6214601;23;20009;-73
2022/10/22 13:18:05;;;;;;;6.47;1.55;;;;;;;;;;6215395;23;20275;-73
2022/10/22 13:20:31;;;;;;;11.88;1.80;;;;;;;;;;6214679;23;20020;-73
2022/10/22 13:23:02;;;;;;;8.98;1.83;;;;;;;;;;6214641;23;20069;-74
2022/10/22 13:25:38;;;;;;;12.60;1.63;;;;;;;;;;6216346;23;20018;-74
2022/10/22 13:28:23;;;;;;;6.60;2.00;;;;;;;;;;6214382;23;20012;-74
2022/10/22 13:30:57;;;;;;;8.88;1.80;;;;;;;;;;6189360;23;20063;-74
2022/10/22 13:33:25;;;;;;;8.55;1.50;;;;;;;;;;6214515;23;20027;-74
2022/10/22 13:35:51;;;;;;;10.77;1.58;;;;;;;;;;6214556;23;20447;-74
2022/10/22 13:38:18;;;;;;;8.15;1.63;;;;;;;;;;6214608;23;20407;-74
2022/10/22 13:40:44;;;;;;;5.88;1.20;;;;;;;;;;6214263;23;20024;-74
2022/10/22 13:43:10;;;;;;;5.63;1.20;;;;;;;;;;6214349;23;20016;-75
2022/10/22 13:45:36;;;;;;;6.68;1.45;;;;;;;;;;6213952;23;20047;-74
2022/10/22 13:48:03;;;;;;;8.27;1.65;;;;;;;;;;6164691;23;20024;-73
2022/10/22 13:50:29;;;;;;;7.35;1.35;;;;;;;;;;6189257;23;20067;-75
2022/10/22 13:52:56;;;;;;;8.93;1.27;;;;;;;;;;6214380;23;20013;-74
2022/10/22 13:55:27;;;;;;;8.63;1.85;;;;;;;;;;6189574;23;20008;-76
2022/10/22 13:57:59;;;;;;;6.50;1.30;;;;;;;;;;6189126;23;20067;-75
2022/10/22 14:00:25;;;;;;;5.63;1.52;;;;;;;;;;6214406;23;20017;-75
2022/10/22 14:02:53;;;;;;;8.70;1.60;;;;;;;;;;6189492;23;20091;-75
2022/10/22 14:05:19;;;;;;;8.27;1.90;;;;;;;;;;6214135;23;20078;-76
2022/10/22 14:07:45;;;;;;;6.40;1.40;;;;;;;;;;6215621;23;20019;-75
2022/10/22 14:10:16;;;;;;;3.72;1.20;;;;;;;;;;6215801;23;20012;-76
2022/10/22 14:12:42;;;;;;;6.15;1.25;;;;;;;;;;6214371;23;20481;-76
2022/10/22 14:15:09;;;;;;;8.70;1.30;;;;;;;;;;6213968;23;20009;-76
2022/10/22 14:17:35;;;;;;;10.20;1.42;;;;;;;;;;6214497;23;20013;-76
2022/10/22 14:20:01;;;;;;;3.78;1.13;;;;;;;;;;6189139;23;20016;-75
2022/10/22 14:22:27;;;;;;;6.88;1.50;;;;;;;;;;6213816;23;20455;-75
2022/10/22 14:24:54;;;;;;;4.55;1.10;;;;;;;;;;6213879;23;20017;-75
2022/10/22 14:27:20;;;;;;;6.05;1.45;;;;;;;;;;6214092;23;20012;-75
2022/10/22 14:29:46;;;;;;;4.50;1.30;;;;;;;;;;6215656;23;20023;-75
2022/10/22 14:32:13;;;;;;;8.15;1.75;;;;;;;;;;6214049;23;20458;-76
2022/10/22 14:34:39;;;;;;;10.05;1.70;;;;;;;;;;6214293;23;20017;-76
2022/10/22 14:37:05;;;;;;;7.43;1.50;;;;;;;;;;6211616;23;20015;-76
2022/10/22 14:39:31;;;;;;;12.60;1.90;;;;;;;;;;6213571;23;20451;-75
2022/10/22 14:41:57;;;;;;;7.95;1.98;;;;;;;;;;6188497;23;20615;-76